createdAt,value
2023-09-21T00:11:57.886Z,2.0
2023-09-21T00:23:57.753Z,2.0
2023-09-21T00:35:57.813Z,3.0
2023-09-21T00:47:58.005Z,3.0
2023-09-21T00:59:57.792Z,3.0
2023-09-21T01:11:57.890Z,2.3
2023-09-21T01:23:57.906Z,2.3
2023-09-21T01:35:57.879Z,1.7
2023-09-21T01:47:57.972Z,1.7
2023-09-21T01:59:57.812Z,1.7
2023-09-21T02:11:57.817Z,2.3
2023-09-21T02:23:57.857Z,2.3
2023-09-21T02:35:57.839Z,3.2
2023-09-21T02:47:57.882Z,3.2
2023-09-21T02:59:57.904Z,3.2
2023-09-21T03:11:57.771Z,1.8
2023-09-21T03:23:57.916Z,1.8
2023-09-21T03:35:57.880Z,2.3
2023-09-21T03:47:57.896Z,2.3
2023-09-21T03:59:57.756Z,2.3
2023-09-21T04:11:57.762Z,3.0
2023-09-21T04:23:57.865Z,3.0
2023-09-21T04:35:57.919Z,2.9
2023-09-21T04:47:57.963Z,2.9
2023-09-21T04:59:57.758Z,2.9
2023-09-21T05:11:57.846Z,2.6
2023-09-21T05:23:57.817Z,2.6
2023-09-21T05:35:57.910Z,4.7
2023-09-21T05:47:57.904Z,4.7
2023-09-21T05:59:57.774Z,4.7
2023-09-21T06:11:57.915Z,2.4
2023-09-21T06:23:57.855Z,2.4
2023-09-21T06:35:57.869Z,2.9
2023-09-21T06:47:57.906Z,2.9
2023-09-21T06:59:57.814Z,2.9
2023-09-21T07:11:58.212Z,3.0
2023-09-21T07:23:57.781Z,3.0
2023-09-21T07:35:57.782Z,4.7
2023-09-21T07:47:57.903Z,4.7
2023-09-21T07:59:57.844Z,4.7
2023-09-21T08:11:57.823Z,2.3
2023-09-21T08:23:57.865Z,2.3
2023-09-21T08:35:57.938Z,2.0
2023-09-21T08:47:58.101Z,2.0
2023-09-21T08:59:57.833Z,2.0
2023-09-21T09:11:57.903Z,3.1
2023-09-21T09:23:57.888Z,3.1
2023-09-21T09:35:57.766Z,2.3
2023-09-21T09:47:58.118Z,2.3
2023-09-21T09:59:57.809Z,2.3
2023-09-21T10:11:57.873Z,3.7
2023-09-21T10:23:57.757Z,3.7
2023-09-21T10:35:58.047Z,3.6
2023-09-21T10:47:57.891Z,3.6
2023-09-21T11:00:11.280Z,3.6
2023-09-21T11:11:57.879Z,2.2
2023-09-21T11:23:57.917Z,2.2
2023-09-21T11:35:57.854Z,2.7
2023-09-21T11:47:58.417Z,2.7
2023-09-21T11:59:57.866Z,2.7
2023-09-21T12:11:57.846Z,2.3
2023-09-21T12:23:57.856Z,2.3
2023-09-21T12:35:57.838Z,2.4
2023-09-21T12:47:57.849Z,2.4
2023-09-21T12:59:57.742Z,2.4
2023-09-21T13:11:57.827Z,2.0
2023-09-21T13:23:57.858Z,2.0
2023-09-21T13:35:57.931Z,2.0
2023-09-21T13:47:58.177Z,2.0
2023-09-21T13:59:57.759Z,2.0
2023-09-21T14:11:57.783Z,2.0
2023-09-21T14:23:57.858Z,2.0
2023-09-21T14:35:57.762Z,3.0
2023-09-21T14:47:57.748Z,3.0
2023-09-21T14:59:57.742Z,3.0
2023-09-21T15:11:57.802Z,3.8
2023-09-21T15:23:58.474Z,3.8
2023-09-21T15:35:58.308Z,4.9
2023-09-21T15:47:57.816Z,4.9
2023-09-21T15:59:57.756Z,4.9
2023-09-21T16:11:57.757Z,2.9
2023-09-21T16:23:57.793Z,2.9
2023-09-21T16:35:57.831Z,2.4
2023-09-21T16:47:57.785Z,2.4
2023-09-21T16:59:57.751Z,2.4
2023-09-21T17:11:57.857Z,2.3
2023-09-21T17:23:57.731Z,2.3
2023-09-21T17:35:57.822Z,2.2
2023-09-21T17:47:57.925Z,2.2
2023-09-21T17:59:57.851Z,2.2
2023-09-21T18:11:57.791Z,2.4
2023-09-21T18:23:57.737Z,2.4
2023-09-21T18:35:57.868Z,2.5
2023-09-21T18:47:57.917Z,2.5
2023-09-21T18:59:57.840Z,2.5
2023-09-21T19:11:57.736Z,1.9
2023-09-21T19:23:57.842Z,1.9
2023-09-21T19:36:00.784Z,2.9
2023-09-21T19:47:57.862Z,2.9
2023-09-21T19:59:57.734Z,2.9
2023-09-21T20:11:57.857Z,1.3
2023-09-21T20:23:57.866Z,1.3
2023-09-21T20:35:57.857Z,1.9
2023-09-21T20:47:57.936Z,1.9
2023-09-21T20:59:57.737Z,1.9
2023-09-21T21:11:57.861Z,1.6
2023-09-21T21:23:57.806Z,1.6
2023-09-21T21:35:57.869Z,1.4
2023-09-21T21:47:57.806Z,1.4
2023-09-21T21:59:57.746Z,1.4
2023-09-21T22:11:57.840Z,0.8
2023-09-21T22:23:58.103Z,0.8
2023-09-21T22:35:57.763Z,1.7
2023-09-21T22:47:57.855Z,1.7
2023-09-21T22:59:57.867Z,1.7
2023-09-21T23:11:57.854Z,1.0
2023-09-21T23:23:57.808Z,1.0
2023-09-21T23:35:59.867Z,0.8
2023-09-21T23:47:57.762Z,0.8
2023-09-21T23:59:57.752Z,0.8
